Tin City LRRS, AK

3:51 AM AKDT on May 24, 2017 (GMT -0800)
Tin City | | Change Station

Elev 269 ft 65.56 °N, 167.92 °W | Updated 56 minutes ago

Ice Pellets
Ice Pellets
30 °F
Feels Like 18 °F
N
18
Wind Variable Wind from NE

Today
High -- | Low -- °F
--% Chance of Precip.
Yesterday
High -- | Low -- °F
Precip. -- in
Pressure 29.66 in
Visibility 0.2 miles
Clouds
Windchill 18 °F
Dew Point 30 °F
Humidity 100%
Rainfall 0.00 in
Snow Depth Not available.
5:03 AM 1:16 AM
Waning Crescent, 3% visible
METAR PATC 241055Z AUTO 04016KT M1/4SM -FZRA VV002 M01/M01 A2966
Pressure 29.66 in
Visibility 0.2 miles
Clouds
Windchill 18 °F
Dew Point 30 °F
Humidity 100%
Rainfall 0.00 in
Snow Depth Not available.
5:03 AM 1:16 AM
Waning Crescent, 3% visible
METAR PATC 241055Z AUTO 04016KT M1/4SM -FZRA VV002 M01/M01 A2966

Get Severe Weather Alerts

Thanks for signing up!

Be on the lookout for a verification email in your inbox.

You'll start receiving the daily forecast at 6 AM.

×

10-Day Weather Forecast

Almanac

Astronomy

May. 24, 2017 Rise Set
Actual Time
Civil Twilight
Nautical Twilight
Astronomical Twilight
Moon
Length of Visible Light
Length of Day
Tomorrow will be .
, % of the Moon is Illuminated

Today's Extremes

State Highs State Lows

Community

WunderPhotos

Category 6

Welcome to Category 6. This is the collective home for Weather Underground's featured writeups by Dr. Jeff Masters (right), Bob Henson (left), Chris Burt, and other regular contributors.

Nearby

Air Quality

  Air Quality AQ Index Pollutant
Not available.

Snow Depth

Station Depth Elevation

Earthquake Activity

City Distance Mag. Time & Date
Minimum magnitude displayed is 2.5.

Coastal Water Temperatures

Place Temperature

Stations

Nearby Weather Stations

Station Location Temp. Windchill Dew Point Humidity Wind Precip. Elev Updated Type
                   

Watches & Warnings

There are currently no watches in effect.